Time;durP1;ratioP1;P1;durP2;ratioP2;P2;SDS_P1;SDS_P2;PMS_P1;PMS_P2;Temp;Humidity;BMP_temperature;BMP_pressure;BME280_temperature;BME280_humidity;BME280_pressure;Samples;Min_cycle;Max_cycle;Signal;HPM_P1;HPM_P2
2023/05/24 00:01:24;;;;;;;;;15.40;15.40;;;;;20.44;37.48;98968.31;5069976;28;8870;-80
2023/05/24 00:03:57;;;;;;;;;19.20;18.00;;;;;20.55;37.45;98970.25;5036424;28;8878;-82
2023/05/24 00:06:27;;;;;;;;;17.20;16.60;;;;;20.59;37.33;98964.56;5034649;28;8870;-82
2023/05/24 00:08:56;;;;;;;;;16.00;16.00;;;;;20.47;37.63;98960.13;5050911;28;9022;-81
2023/05/24 00:11:27;;;;;;;;;16.20;15.20;;;;;20.45;37.66;98964.72;5048647;28;8995;-81
2023/05/24 00:13:56;;;;;;;;;19.00;16.60;;;;;20.43;38.32;98962.16;5053977;28;8858;-82
2023/05/24 00:16:24;;;;;;;;;21.80;20.60;;;;;20.41;38.20;98960.56;5068932;28;8896;-81
2023/05/24 00:18:53;;;;;;;;;19.60;17.80;;;;;20.40;38.09;98956.16;5069762;28;8842;-81
2023/05/24 00:21:22;;;;;;;;;17.40;16.80;;;;;20.29;38.33;98956.91;5070452;28;8858;-81
2023/05/24 00:23:51;;;;;;;;;19.20;18.40;;;;;20.32;38.56;98947.88;5068095;28;8871;-80
2023/05/24 00:26:20;;;;;;;;;18.00;18.00;;;;;20.37;37.87;98956.38;5051407;28;8861;-81
2023/05/24 00:28:58;;;;;;;;;17.80;16.20;;;;;20.31;37.96;98947.00;5001561;28;9010;-83
2023/05/24 00:31:26;;;;;;;;;16.40;16.40;;;;;20.41;37.93;98955.22;5048430;28;8857;-82
2023/05/24 00:33:56;;;;;;;;;16.40;16.20;;;;;20.37;38.02;98956.38;5048657;28;8849;-82
2023/05/24 00:36:25;;;;;;;;;14.80;14.40;;;;;20.29;38.04;98954.25;5048712;28;8850;-80
2023/05/24 00:38:54;;;;;;;;;16.20;15.40;;;;;20.25;37.91;98961.63;5014398;28;8845;-82
2023/05/24 00:41:23;;;;;;;;;12.80;12.60;;;;;20.31;38.24;98952.31;5048132;28;8934;-81
2023/05/24 00:43:52;;;;;;;;;13.00;10.80;;;;;20.25;37.86;98953.63;5050888;28;8842;-82
2023/05/24 00:46:27;;;;;;;;;18.60;17.20;;;;;20.31;38.28;98957.66;5017685;28;9599;-82
2023/05/24 00:48:57;;;;;;;;;15.00;14.40;;;;;20.26;37.89;98950.00;5069732;28;8842;-82
2023/05/24 00:51:27;;;;;;;;;15.60;15.20;;;;;20.15;38.37;98952.53;5069717;28;8880;-82
2023/05/24 00:53:56;;;;;;;;;16.20;16.20;;;;;20.17;38.12;98949.75;5068311;28;8846;-83
2023/05/24 00:56:26;;;;;;;;;18.00;16.80;;;;;20.15;38.30;98952.53;5069698;28;8854;-83
2023/05/24 00:58:56;;;;;;;;;17.40;16.40;;;;;20.19;38.61;98955.84;5068881;28;8952;-82
2023/05/24 01:01:29;;;;;;;;;13.20;12.00;;;;;20.21;38.53;98948.59;5059518;28;8828;-82
2023/05/24 01:03:59;;;;;;;;;19.20;17.60;;;;;20.25;38.42;98948.28;5023759;28;8871;-83
2023/05/24 01:06:29;;;;;;;;;17.80;17.00;;;;;20.19;38.41;98948.69;5049876;28;8860;-83
2023/05/24 01:09:11;;;;;;;;;16.00;16.00;;;;;20.37;38.08;98946.56;5066819;28;8856;-83
2023/05/24 01:11:53;;;;;;;;;15.80;15.80;;;;;20.25;38.75;98956.28;5050309;28;8851;-84
2023/05/24 01:14:29;;;;;;;;;15.40;15.40;;;;;20.34;38.71;98959.28;5067085;28;8836;-83
2023/05/24 01:17:08;;;;;;;;;17.20;16.40;;;;;20.27;39.12;98956.19;5066030;28;8858;-84
2023/05/24 01:19:49;;;;;;;;;20.60;19.40;;;;;20.32;38.97;98954.06;5049970;28;10244;-83
2023/05/24 01:22:51;;;;;;;;;17.40;17.40;;;;;20.57;38.57;98950.47;5049869;28;8842;-83
2023/05/24 01:25:37;;;;;;;;;22.20;19.40;;;;;20.64;39.07;98954.41;5083943;28;8845;-84
2023/05/24 01:28:09;;;;;;;;;16.40;16.40;;;;;20.65;39.22;98947.25;5053263;28;8861;-83
2023/05/24 01:30:41;;;;;;;;;20.20;18.80;;;;;20.64;38.48;98953.56;5066647;28;8935;-83
2023/05/24 01:33:10;;;;;;;;;15.80;15.20;;;;;20.64;38.53;98953.56;5053333;28;8880;-84
2023/05/24 01:35:41;;;;;;;;;19.80;19.80;;;;;20.65;38.94;98950.78;5059488;28;9560;-85
2023/05/24 01:38:10;;;;;;;;;19.60;17.20;;;;;20.62;38.91;98953.66;5052707;28;8879;-84
2023/05/24 01:40:40;;;;;;;;;20.80;18.80;;;;;20.57;39.21;98953.13;5047584;28;8845;-83
2023/05/24 01:43:18;;;;;;;;;20.80;19.20;;;;;20.64;39.28;98950.88;5047287;28;8837;-84
2023/05/24 01:45:58;;;;;;;;;18.60;16.40;;;;;20.62;39.05;98952.81;5051997;28;8868;-84
2023/05/24 01:48:34;;;;;;;;;18.60;18.60;;;;;20.56;39.18;98954.13;5013449;28;8849;-84
2023/05/24 01:51:10;;;;;;;;;20.20;19.20;;;;;20.45;39.54;98949.53;5030532;28;8925;-84
2023/05/24 01:53:45;;;;;;;;;23.60;23.60;;;;;19.46;43.10;98959.91;5063906;28;9018;-86
2023/05/24 01:56:18;;;;;;;;;21.00;19.60;;;;;19.37;43.71;98950.75;5030497;28;8877;-84
2023/05/24 01:58:52;;;;;;;;;29.20;24.80;;;;;19.59;43.10;98951.97;4997827;28;8966;-83
2023/05/24 02:01:21;;;;;;;;;22.20;21.40;;;;;19.55;42.30;98954.00;5047656;28;8857;-84
2023/05/24 02:03:51;;;;;;;;;19.40;19.40;;;;;19.55;41.56;98945.16;5029376;28;8858;-83
2023/05/24 02:06:20;;;;;;;;;23.20;20.60;;;;;19.51;42.35;98944.47;5046531;28;8858;-84
2023/05/24 02:08:48;;;;;;;;;20.60;20.20;;;;;19.57;42.53;98949.41;5017469;28;8855;-84
2023/05/24 02:11:17;;;;;;;;;22.00;22.00;;;;;19.62;42.47;98947.28;5043093;28;9747;-85
2023/05/24 02:13:48;;;;;;;;;25.80;24.00;;;;;19.64;42.40;98953.38;5042415;28;8905;-83
2023/05/24 02:16:17;;;;;;;;;24.60;24.60;;;;;19.69;42.48;98945.06;4980672;28;8962;-84
2023/05/24 02:18:46;;;;;;;;;20.80;20.60;;;;;19.64;42.50;98956.03;4989567;28;8880;-82
2023/05/24 02:21:15;;;;;;;;;23.00;20.40;;;;;19.60;42.87;98972.34;5005602;28;8873;-83
2023/05/24 02:23:44;;;;;;;;;22.20;22.20;;;;;19.05;44.44;98980.38;4985021;28;9041;-83
2023/05/24 02:26:14;;;;;;;;;28.40;24.80;;;;;19.11;44.51;98987.09;4971446;28;9075;-83
2023/05/24 02:28:43;;;;;;;;;31.50;29.00;;;;;18.72;46.32;98964.72;5005573;28;8943;-84
2023/05/24 02:31:14;;;;;;;;;29.25;28.50;;;;;18.82;45.79;98979.19;4957793;28;8972;-83
2023/05/24 02:33:44;;;;;;;;;31.00;26.50;;;;;18.81;46.08;98995.28;5006047;28;8846;-83
2023/05/24 02:36:13;;;;;;;;;26.20;23.20;;;;;18.73;46.42;98987.75;4979954;28;8840;-84
2023/05/24 02:38:41;;;;;;;;;33.25;30.75;;;;;18.77;46.48;98967.09;5009815;28;9037;-84
2023/05/24 02:41:16;;;;;;;;;28.75;28.75;;;;;18.83;46.15;98977.38;5009965;28;9562;-85
2023/05/24 02:43:45;;;;;;;;;29.80;27.20;;;;;18.86;46.54;98991.34;5027037;28;8936;-84
2023/05/24 02:46:17;;;;;;;;;28.75;28.50;;;;;18.82;46.74;98995.19;5027288;28;8855;-85
2023/05/24 02:48:45;;;;;;;;;37.50;34.75;;;;;18.75;46.92;98992.00;5026549;28;8923;-85
2023/05/24 02:51:14;;;;;;;;;77.50;68.25;;;;;18.77;46.94;98996.38;5026168;28;8847;-84
2023/05/24 02:53:44;;;;;;;;;38.00;33.25;;;;;18.73;47.23;98999.22;5026797;28;9721;-83
2023/05/24 02:56:16;;;;;;;;;33.50;32.00;;;;;18.69;47.46;99000.38;5014862;28;8885;-84
2023/05/24 02:58:45;;;;;;;;;32.25;31.00;;;;;18.72;47.39;99000.19;5032085;28;8841;-83
2023/05/24 03:01:14;;;;;;;;;34.75;33.25;;;;;18.78;47.20;99000.75;5047016;28;8875;-84
2023/05/24 03:03:44;;;;;;;;;33.50;31.50;;;;;18.81;47.25;99005.91;5048279;28;8853;-84
2023/05/24 03:06:14;;;;;;;;;43.00;35.25;;;;;18.83;47.17;98996.03;5058393;28;8877;-82
2023/05/24 03:08:43;;;;;;;;;72.00;57.33;;;;;18.85;47.05;98999.44;5063343;28;8871;-83
2023/05/24 03:11:14;;;;;;;;;88.25;84.50;;;;;18.90;47.09;98992.03;5032336;28;9224;-85
2023/05/24 03:13:43;;;;;;;;;55.75;46.25;;;;;18.94;47.02;98998.84;5033277;28;10452;-85
2023/05/24 03:16:12;;;;;;;;;46.25;37.75;;;;;18.96;47.19;99004.09;5068239;28;9702;-85
2023/05/24 03:18:41;;;;;;;;;34.25;33.00;;;;;18.98;46.89;99004.84;5052143;28;8870;-85
2023/05/24 03:21:11;;;;;;;;;33.25;31.75;;;;;18.99;47.03;98998.53;5067323;28;8843;-86
2023/05/24 03:23:41;;;;;;;;;37.75;32.50;;;;;19.03;46.77;99000.91;5067108;28;9001;-86
2023/05/24 03:26:11;;;;;;;;;34.50;32.50;;;;;19.04;46.72;99001.75;5037585;28;8837;-86
2023/05/24 03:28:40;;;;;;;;;48.50;41.75;;;;;19.04;46.69;98999.09;5049181;28;8845;-84
2023/05/24 03:31:10;;;;;;;;;48.50;41.00;;;;;19.06;46.58;98998.03;5033739;28;8868;-83
2023/05/24 03:33:40;;;;;;;;;41.25;36.00;;;;;19.10;46.59;99001.34;5033704;28;8871;-84
2023/05/24 03:36:11;;;;;;;;;38.00;34.50;;;;;19.12;46.42;98996.78;5033967;28;8849;-84
2023/05/24 03:38:40;;;;;;;;;39.50;35.25;;;;;19.12;46.38;98995.00;5000649;28;8877;-84
2023/05/24 03:41:10;;;;;;;;;39.75;35.75;;;;;19.11;46.32;98989.75;5070841;28;9587;-85
2023/05/24 03:43:39;;;;;;;;;38.75;34.75;;;;;19.10;46.57;98996.03;5071024;28;8877;-84
2023/05/24 03:46:15;;;;;;;;;37.75;34.50;;;;;19.12;46.39;99002.13;5053823;28;8861;-85
2023/05/24 03:48:44;;;;;;;;;44.50;36.25;;;;;19.13;46.65;99007.34;5068888;28;8949;-86
2023/05/24 03:51:15;;;;;;;;;73.50;60.75;;;;;19.10;46.66;99002.25;5053392;28;8838;-85
2023/05/24 03:53:44;;;;;;;;;60.75;49.25;;;;;19.14;46.56;99002.91;5071083;28;9459;-84
2023/05/24 03:56:13;;;;;;;;;38.25;33.75;;;;;19.19;46.12;99002.59;5071734;28;9640;-85
2023/05/24 03:58:42;;;;;;;;;33.25;31.25;;;;;19.23;45.96;99007.59;5048418;28;8998;-84
2023/05/24 04:01:12;;;;;;;;;32.75;31.25;;;;;19.30;45.69;99005.41;5051597;28;8870;-85
2023/05/24 04:04:01;;;;;;;;;39.50;35.25;;;;;19.42;45.68;99004.56;5019861;28;8879;-85
2023/05/24 04:06:31;;;;;;;;;47.00;40.25;;;;;19.48;45.22;99009.50;5068323;28;8827;-85
2023/05/24 04:09:01;;;;;;;;;40.25;36.25;;;;;19.58;44.85;99006.28;5036514;28;9350;-86
2023/05/24 04:11:31;;;;;;;;;33.50;31.00;;;;;19.67;44.38;99001.16;5078083;28;8846;-84
2023/05/24 04:14:00;;;;;;;;;32.75;31.25;;;;;19.74;44.48;99006.06;5052421;28;8840;-86
2023/05/24 04:16:32;;;;;;;;;33.50;32.00;;;;;19.83;44.65;99008.97;5064851;28;8970;-83
2023/05/24 04:19:05;;;;;;;;;32.75;31.25;;;;;19.92;44.55;99004.84;5064712;28;8994;-85
2023/05/24 04:21:37;;;;;;;;;30.50;30.25;;;;;20.02;44.64;98997.03;5050616;28;8851;-83
2023/05/24 04:24:07;;;;;;;;;37.00;34.50;;;;;20.13;44.51;99001.66;5030572;28;9108;-87
2023/05/24 04:26:37;;;;;;;;;34.75;31.75;;;;;20.07;44.45;98995.78;5034083;28;9644;-79
2023/05/24 04:29:06;;;;;;;;;34.00;32.50;;;;;20.12;44.57;98999.94;5025189;28;8861;-80
2023/05/24 04:31:36;;;;;;;;;67.75;53.00;;;;;20.15;44.66;99003.25;4990651;28;8838;-78
2023/05/24 04:34:06;;;;;;;;;55.00;45.00;;;;;20.29;44.50;99002.28;4975840;28;8907;-78
2023/05/24 04:36:37;;;;;;;;;36.75;33.75;;;;;20.29;44.31;99008.50;4953932;28;8845;-77
2023/05/24 04:39:05;;;;;;;;;35.25;33.50;;;;;20.26;44.48;99008.72;4956882;28;8854;-77
2023/05/24 04:41:36;;;;;;;;;33.00;31.50;;;;;20.36;44.26;99014.25;4976131;28;8877;-79
2023/05/24 04:44:04;;;;;;;;;34.50;32.25;;;;;20.48;43.64;99010.75;4981113;28;8862;-77
2023/05/24 04:46:34;;;;;;;;;30.00;29.50;;;;;20.52;43.41;99008.72;5012561;28;8873;-78
2023/05/24 04:49:04;;;;;;;;;34.25;32.25;;;;;20.41;43.93;99013.94;5045715;28;8874;-78
2023/05/24 04:51:37;;;;;;;;;30.00;28.00;;;;;20.34;44.38;99020.69;5045903;28;8976;-79
2023/05/24 04:54:08;;;;;;;;;31.25;30.25;;;;;20.42;43.72;99029.00;5046134;28;8854;-78
2023/05/24 04:56:38;;;;;;;;;31.50;30.75;;;;;20.54;43.78;99025.47;5029245;28;8835;-80
2023/05/24 04:59:08;;;;;;;;;32.00;30.50;;;;;20.67;43.20;99023.63;5046656;28;9656;-79
2023/05/24 05:01:37;;;;;;;;;35.50;32.00;;;;;20.65;43.08;99024.69;5029633;28;8870;-79
2023/05/24 05:04:06;;;;;;;;;36.25;32.75;;;;;20.63;43.42;99026.63;5050584;28;8840;-79
2023/05/24 05:06:39;;;;;;;;;35.75;32.75;;;;;20.73;43.25;99030.34;5094457;28;8839;-79
2023/05/24 05:09:11;;;;;;;;;38.00;34.25;;;;;20.73;43.36;99032.16;5071713;28;8848;-77
2023/05/24 05:11:40;;;;;;;;;35.50;32.75;;;;;20.79;43.61;99031.72;5106549;28;8836;-77
2023/05/24 05:14:09;;;;;;;;;33.00;31.00;;;;;20.85;43.03;99023.25;5106835;28;8998;-77
2023/05/24 05:16:40;;;;;;;;;34.50;33.00;;;;;20.93;43.21;99034.28;5104996;28;8835;-77
2023/05/24 05:19:08;;;;;;;;;39.00;35.25;;;;;21.06;42.38;99032.41;5074144;28;8853;-78
2023/05/24 05:21:38;;;;;;;;;35.75;33.50;;;;;21.24;42.35;99029.38;5053821;28;8848;-80
2023/05/24 05:24:07;;;;;;;;;33.75;32.25;;;;;21.37;42.03;99023.97;5061528;28;8878;-78
2023/05/24 05:26:37;;;;;;;;;37.25;32.50;;;;;21.57;41.88;99027.84;5032572;28;8858;-77
2023/05/24 05:29:06;;;;;;;;;34.75;32.00;;;;;21.64;41.58;99024.59;5066009;28;8878;-78
2023/05/24 05:31:35;;;;;;;;;33.00;30.75;;;;;21.75;41.24;99029.16;5053848;28;8841;-79
2023/05/24 05:34:08;;;;;;;;;37.00;33.00;;;;;21.73;41.14;99027.53;5051240;28;9094;-78
2023/05/24 05:36:39;;;;;;;;;35.00;31.75;;;;;21.93;40.96;99026.03;5063915;28;9623;-81
2023/05/24 05:39:09;;;;;;;;;31.75;30.75;;;;;22.04;40.67;99032.25;5067969;28;9713;-80
2023/05/24 05:41:42;;;;;;;;;36.75;34.00;;;;;22.11;40.16;99029.09;5068393;28;8959;-81
2023/05/24 05:44:13;;;;;;;;;38.00;33.00;;;;;22.16;39.99;99029.59;5033577;28;8951;-81
2023/05/24 05:46:44;;;;;;;;;33.75;31.75;;;;;22.20;39.73;99047.13;5050076;28;8857;-79
2023/05/24 05:49:14;;;;;;;;;31.75;31.00;;;;;22.42;39.95;99041.00;5057505;28;8855;-79
2023/05/24 05:51:43;;;;;;;;;40.00;34.75;;;;;22.52;39.96;99039.28;5066526;28;9574;-79
2023/05/24 05:54:17;;;;;;;;;33.25;32.00;;;;;22.64;40.04;99040.16;5066124;28;8993;-79
2023/05/24 05:56:47;;;;;;;;;41.50;35.50;;;;;22.69;40.12;99037.94;5067364;28;8955;-79
2023/05/24 05:59:16;;;;;;;;;34.25;32.25;;;;;22.59;39.28;99039.66;5066121;28;8912;-79
2023/05/24 06:01:46;;;;;;;;;38.50;34.50;;;;;22.58;39.56;99048.66;5066934;28;8877;-81
2023/05/24 06:04:15;;;;;;;;;41.50;35.00;;;;;22.69;39.90;99048.66;5068360;28;8854;-78
2023/05/24 06:06:48;;;;;;;;;36.25;33.50;;;;;22.61;40.39;99051.97;5068125;28;8838;-80
2023/05/24 06:09:17;;;;;;;;;41.50;35.25;;;;;22.77;39.93;99053.44;5067561;28;8863;-80
2023/05/24 06:11:47;;;;;;;;;39.00;35.25;;;;;22.90;39.84;99059.56;5017716;28;8850;-80
2023/05/24 06:14:17;;;;;;;;;44.00;36.25;;;;;23.18;39.49;99049.25;5049896;28;8886;-80
2023/05/24 06:16:46;;;;;;;;;40.50;35.75;;;;;23.18;39.06;99049.25;5019852;28;8864;-80
2023/05/24 06:19:15;;;;;;;;;40.25;36.00;;;;;23.42;38.94;99048.22;5053047;28;8847;-77
2023/05/24 06:21:46;;;;;;;;;40.75;36.00;;;;;23.51;38.63;99056.38;5066865;28;8897;-82
2023/05/24 06:24:19;;;;;;;;;42.25;36.50;;;;;23.51;37.89;99060.88;5058514;28;8933;-80
2023/05/24 06:26:52;;;;;;;;;44.50;38.75;;;;;23.23;38.50;99064.97;5003690;28;8989;-79
2023/05/24 06:29:23;;;;;;;;;41.00;35.25;;;;;23.55;38.08;99062.38;5069101;28;8862;-79
2023/05/24 06:31:52;;;;;;;;;42.75;36.50;;;;;23.08;38.20;99067.94;5061983;28;8857;-78
2023/05/24 06:34:21;;;;;;;;;40.00;35.75;;;;;23.05;38.63;99062.81;5061356;28;8892;-78
2023/05/24 06:36:51;;;;;;;;;38.00;34.25;;;;;23.11;38.45;99069.50;5054644;28;8941;-79
2023/05/24 06:39:20;;;;;;;;;44.25;36.75;;;;;23.35;38.15;99066.66;5067481;28;8891;-77
2023/05/24 06:41:52;;;;;;;;;44.50;37.50;;;;;23.54;37.99;99074.06;5066977;28;9557;-75
2023/05/24 06:44:32;;;;;;;;;42.50;37.25;;;;;22.72;39.22;99077.06;5052349;28;8876;-75
2023/05/24 06:47:01;;;;;;;;;45.50;39.25;;;;;22.26;40.66;99070.81;5057710;28;8992;-81
2023/05/24 06:49:30;;;;;;;;;45.75;39.25;;;;;22.34;40.72;99084.44;5069035;28;8939;-79
2023/05/24 06:51:59;;;;;;;;;47.75;40.25;;;;;22.16;41.42;99084.00;5072192;28;8862;-82
2023/05/24 06:54:28;;;;;;;;;50.75;42.75;;;;;21.06;43.64;99099.22;5073043;28;8851;-82
2023/05/24 06:56:59;;;;;;;;;49.25;42.00;;;;;21.62;42.73;99096.09;5070531;28;8881;-83
2023/05/24 06:59:28;;;;;;;;;50.00;42.25;;;;;21.18;43.67;99102.84;5050571;28;8863;-81
2023/05/24 07:01:57;;;;;;;;;46.75;38.50;;;;;21.92;41.79;99109.94;5066991;28;8846;-80
2023/05/24 07:04:30;;;;;;;;;47.25;40.25;;;;;22.03;41.22;99104.63;5036969;28;8993;-81
2023/05/24 07:06:59;;;;;;;;;45.25;38.50;;;;;21.98;42.15;99107.69;5072882;28;8838;-82
2023/05/24 07:09:28;;;;;;;;;48.75;39.75;;;;;22.03;41.67;99099.28;5037761;28;8985;-80
2023/05/24 07:11:57;;;;;;;;;48.75;39.00;;;;;21.99;42.02;99101.38;5072353;28;8858;-82
2023/05/24 07:14:27;;;;;;;;;50.25;42.50;;;;;22.16;41.46;99107.25;5072266;28;8870;-81
2023/05/24 07:16:58;;;;;;;;;48.75;41.00;;;;;21.43;42.99;99128.66;5071242;28;8865;-80
2023/05/24 07:19:28;;;;;;;;;46.25;39.50;;;;;20.06;46.88;99150.63;5054507;28;8878;-80
2023/05/24 07:21:57;;;;;;;;;47.75;40.75;;;;;20.42;46.13;99138.44;5071183;28;8858;-83
2023/05/24 07:24:26;;;;;;;;;49.00;41.75;;;;;19.96;47.86;99153.03;5054412;28;8988;-80
2023/05/24 07:26:56;;;;;;;;;48.00;41.50;;;;;19.10;50.71;99167.41;5072280;28;8956;-83
2023/05/24 07:29:26;;;;;;;;;48.75;41.25;;;;;18.86;51.80;99168.94;5071017;28;9611;-78
2023/05/24 07:31:56;;;;;;;;;51.00;41.25;;;;;18.53;53.44;99180.63;5070406;28;8977;-81
2023/05/24 07:34:28;;;;;;;;;46.50;39.00;;;;;18.43;54.09;99196.28;5070058;28;9601;-81
2023/05/24 07:36:59;;;;;;;;;43.50;37.25;;;;;19.15;52.21;99190.25;5035713;28;8851;-81
2023/05/24 07:39:28;;;;;;;;;48.75;40.75;;;;;18.41;54.63;99208.00;5071626;28;9056;-80
2023/05/24 07:41:57;;;;;;;;;51.50;43.75;;;;;18.23;55.72;99201.91;5071238;28;8846;-80
2023/05/24 07:44:28;;;;;;;;;50.25;40.75;;;;;18.15;56.30;99202.38;5069518;28;8880;-80
2023/05/24 07:46:57;;;;;;;;;49.75;41.75;;;;;18.35;55.98;99198.56;5069724;28;8846;-80
2023/05/24 07:49:26;;;;;;;;;46.75;38.50;;;;;18.85;55.14;99200.00;5052622;28;8858;-80
2023/05/24 07:51:57;;;;;;;;;44.50;38.50;;;;;19.07;54.96;99214.69;5069443;28;8854;-82
2023/05/24 07:54:25;;;;;;;;;43.50;37.50;;;;;19.35;54.72;99216.50;5070324;28;8839;-80
2023/05/24 07:56:56;;;;;;;;;47.25;40.50;;;;;19.55;54.35;99215.25;5052848;28;8912;-82
2023/05/24 07:59:25;;;;;;;;;45.00;38.00;;;;;19.80;54.13;99214.56;5053452;28;8947;-82
2023/05/24 08:02:00;;;;;;;;;48.50;40.25;;;;;20.23;53.02;99222.44;5069614;28;8850;-81
2023/05/24 08:04:29;;;;;;;;;49.25;41.50;;;;;20.54;51.87;99216.84;5068134;28;8887;-80
2023/05/24 08:07:00;;;;;;;;;46.50;39.50;;;;;20.78;50.21;99225.84;5052171;28;8894;-80
2023/05/24 08:09:32;;;;;;;;;48.25;40.75;;;;;21.02;50.21;99228.69;5051011;28;8868;-82
2023/05/24 08:12:01;;;;;;;;;46.50;37.25;;;;;21.17;49.60;99226.75;5028034;28;8951;-82
2023/05/24 08:14:30;;;;;;;;;49.75;41.25;;;;;21.32;49.10;99234.66;4992007;28;9663;-84
2023/05/24 08:17:00;;;;;;;;;48.50;39.50;;;;;21.53;48.24;99237.63;4993189;28;8874;-83
2023/05/24 08:19:34;;;;;;;;;45.50;38.25;;;;;21.74;48.58;99238.78;4976075;28;9008;-80
2023/05/24 08:22:04;;;;;;;;;49.50;40.25;;;;;21.79;46.79;99235.78;4986983;28;8874;-80
2023/05/24 08:24:33;;;;;;;;;46.75;39.75;;;;;21.99;45.70;99234.31;4995485;28;8863;-81
2023/05/24 08:27:03;;;;;;;;;49.25;42.50;;;;;22.17;45.05;99238.31;5011431;28;8866;-80
2023/05/24 08:29:32;;;;;;;;;51.25;41.25;;;;;22.22;45.97;99235.28;4955681;28;8893;-80
2023/05/24 08:32:02;;;;;;;;;48.75;39.50;;;;;22.34;45.99;99239.75;4951026;28;8872;-78
2023/05/24 08:34:32;;;;;;;;;51.00;43.50;;;;;22.55;44.05;99234.59;4933738;28;8979;-80
2023/05/24 08:37:01;;;;;;;;;46.50;39.75;;;;;22.77;43.50;99239.19;4941302;29;8847;-79
2023/05/24 08:39:30;;;;;;;;;48.75;41.25;;;;;22.90;42.23;99232.88;4947751;29;8955;-83
2023/05/24 08:41:59;;;;;;;;;45.00;38.50;;;;;22.92;41.72;99239.84;4931115;29;9011;-85
2023/05/24 08:44:44;;;;;;;;;49.75;41.25;;;;;23.12;41.74;99235.59;4897726;28;8874;-81
2023/05/24 08:47:16;;;;;;;;;45.25;38.75;;;;;23.17;41.41;99241.47;4933800;28;8865;-79
2023/05/24 08:49:45;;;;;;;;;47.25;39.00;;;;;23.22;41.50;99238.41;4965925;28;9014;-83
2023/05/24 08:52:14;;;;;;;;;44.25;38.00;;;;;23.28;41.31;99254.03;4949569;28;8865;-82
2023/05/24 08:54:43;;;;;;;;;47.75;40.00;;;;;23.32;41.35;99239.41;4967843;28;8906;-81
2023/05/24 08:57:14;;;;;;;;;46.00;39.50;;;;;23.45;41.33;99233.94;4905901;28;8882;-83
2023/05/24 08:59:44;;;;;;;;;52.75;42.50;;;;;23.58;40.63;99234.69;4955737;28;8883;-82
2023/05/24 09:02:16;;;;;;;;;46.50;39.50;;;;;23.64;40.52;99238.69;4988042;28;8848;-80
2023/05/24 09:04:48;;;;;;;;;47.50;41.00;;;;;23.79;40.17;99239.28;4988207;28;8970;-81
2023/05/24 09:07:19;;;;;;;;;48.50;40.25;;;;;23.96;39.84;99244.13;4987510;28;8876;-79
2023/05/24 09:09:53;;;;;;;;;47.25;40.25;;;;;23.96;39.85;99248.63;4987022;28;9744;-79
2023/05/24 09:12:24;;;;;;;;;48.50;41.50;;;;;23.10;40.34;99245.59;4971303;28;8910;-80
2023/05/24 09:15:08;;;;;;;;;51.25;42.50;;;;;22.05;43.13;99257.94;5000263;28;9588;-81
2023/05/24 09:17:39;;;;;;;;;53.00;44.50;;;;;21.75;44.39;99256.56;4990582;28;8874;-81
2023/05/24 09:20:09;;;;;;;;;51.50;43.75;;;;;22.07;43.42;99260.50;5007620;28;8858;-81
2023/05/24 09:22:42;;;;;;;;;48.75;41.50;;;;;22.31;43.00;99260.56;4976639;28;8890;-81
2023/05/24 09:25:14;;;;;;;;;51.00;42.75;;;;;22.22;42.27;99264.72;5004886;28;8987;-79
2023/05/24 09:27:48;;;;;;;;;45.25;37.25;;;;;22.19;42.76;99264.97;4994960;28;8878;-80
2023/05/24 09:30:17;;;;;;;;;45.75;39.50;;;;;22.34;42.21;99263.84;5010954;28;8879;-81
2023/05/24 09:32:59;;;;;;;;;44.50;37.75;;;;;22.97;41.18;99261.78;5027558;28;8859;-81
2023/05/24 09:35:28;;;;;;;;;40.00;35.50;;;;;23.22;40.46;99256.34;4994453;28;9042;-83
2023/05/24 09:37:59;;;;;;;;;45.50;36.00;;;;;23.17;40.21;99254.03;5010859;28;8851;-82
2023/05/24 09:40:28;;;;;;;;;45.75;39.00;;;;;22.97;40.16;99264.47;5055007;28;9582;-82
2023/05/24 09:43:06;;;;;;;;;47.25;40.25;;;;;23.42;40.38;99260.13;5050804;28;8860;-81
2023/05/24 09:45:39;;;;;;;;;49.00;40.75;;;;;23.75;39.68;99260.16;5050636;28;8941;-82
2023/05/24 09:48:12;;;;;;;;;49.75;41.75;;;;;23.99;39.69;99253.75;5066572;28;8944;-82
2023/05/24 09:50:41;;;;;;;;;33.75;31.25;;;;;23.92;37.52;99253.41;5033778;28;8880;-83
2023/05/24 09:53:11;;;;;;;;;36.25;32.75;;;;;24.23;37.59;99255.44;5033539;28;8874;-81
2023/05/24 09:55:40;;;;;;;;;35.25;33.00;;;;;24.63;36.41;99249.41;5066456;28;9617;-80
2023/05/24 09:58:11;;;;;;;;;44.25;36.25;;;;;24.58;37.27;99251.63;5066072;28;8898;-81
2023/05/24 10:00:41;;;;;;;;;43.75;37.50;;;;;24.79;37.34;99254.34;5066342;28;9633;-82
2023/05/24 10:03:13;;;;;;;;;41.75;36.25;;;;;25.05;36.75;99252.97;5049156;28;8914;-79
2023/05/24 10:05:45;;;;;;;;;43.00;36.75;;;;;24.38;37.53;99254.16;5033652;28;9562;-83
2023/05/24 10:08:17;;;;;;;;;44.25;38.00;;;;;24.82;36.78;99256.78;5066770;28;9598;-83
2023/05/24 10:10:46;;;;;;;;;40.25;35.75;;;;;25.05;36.04;99252.97;5069493;28;8880;-82
2023/05/24 10:13:16;;;;;;;;;42.75;37.25;;;;;25.42;35.92;99257.03;5071176;28;8832;-83
2023/05/24 10:15:45;;;;;;;;;38.50;33.75;;;;;25.34;35.67;99254.13;5053138;28;8860;-82
2023/05/24 10:18:17;;;;;;;;;46.50;38.75;;;;;24.01;37.51;99249.09;5056785;28;8888;-80
2023/05/24 10:20:46;;;;;;;;;41.25;35.50;;;;;24.29;37.96;99253.09;5047075;28;8950;-83
2023/05/24 10:23:20;;;;;;;;;39.25;34.50;;;;;24.93;36.34;99252.19;5065522;28;8937;-82
2023/05/24 10:25:53;;;;;;;;;38.50;31.75;;;;;25.21;36.23;99241.75;5068136;28;8997;-80
2023/05/24 10:28:24;;;;;;;;;35.50;32.25;;;;;25.47;35.89;99247.56;5066724;28;8880;-81
2023/05/24 10:31:01;;;;;;;;;34.50;31.75;;;;;25.78;35.30;99235.91;5067988;28;8863;-81
2023/05/24 10:33:36;;;;;;;;;32.50;30.75;;;;;26.07;34.77;99241.38;5068265;28;8830;-79
2023/05/24 10:36:07;;;;;;;;;33.75;30.25;;;;;26.21;35.00;99249.06;5032353;28;8889;-77
2023/05/24 10:38:39;;;;;;;;;33.75;30.50;;;;;26.48;34.17;99253.75;5067211;28;8874;-82
2023/05/24 10:41:08;;;;;;;;;36.75;33.00;;;;;26.55;33.88;99247.78;5066377;28;8854;-80
2023/05/24 10:43:38;;;;;;;;;26.50;26.00;;;;;26.69;34.14;99241.13;5066171;28;8873;-79
2023/05/24 10:46:09;;;;;;;;;39.25;35.00;;;;;26.66;34.30;99243.13;5066874;28;8850;-81
2023/05/24 10:48:41;;;;;;;;;28.75;28.00;;;;;26.80;33.57;99243.69;5050399;28;8882;-79
2023/05/24 10:51:32;;;;;;;;;29.50;28.25;;;;;26.87;32.80;99247.47;5068287;28;9588;-80
2023/05/24 10:54:13;;;;;;;;;29.75;29.00;;;;;27.04;32.95;99245.91;5026253;28;8855;-81
2023/05/24 10:56:44;;;;;;;;;25.75;25.75;;;;;27.15;32.56;99244.91;4977192;28;8941;-80
2023/05/24 10:59:36;;;;;;;;;23.50;23.50;;;;;27.12;32.21;99243.34;5009302;28;8860;-81
2023/05/24 11:02:08;;;;;;;;;24.00;22.50;;;;;27.20;32.49;99240.75;5025666;28;8941;-81
2023/05/24 11:04:42;;;;;;;;;23.75;21.25;;;;;26.82;32.03;99250.63;4993041;28;8889;-82
2023/05/24 11:07:14;;;;;;;;;18.80;17.80;;;;;26.76;32.24;99248.50;5025729;28;9605;-82
2023/05/24 11:09:45;;;;;;;;;18.60;17.80;;;;;26.64;32.57;99249.63;5005614;28;8866;-81
2023/05/24 11:12:16;;;;;;;;;20.40;17.80;;;;;26.56;32.11;99247.66;4989168;28;8886;-80
2023/05/24 11:14:50;;;;;;;;;18.60;18.60;;;;;26.26;31.92;99251.31;4973205;28;9589;-83
2023/05/24 11:17:20;;;;;;;;;20.80;19.00;;;;;26.60;31.89;99248.22;5014090;28;8846;-82
2023/05/24 11:19:52;;;;;;;;;23.25;22.00;;;;;26.66;33.73;99235.03;5010805;28;9584;-84
2023/05/24 11:22:25;;;;;;;;;26.00;26.00;;;;;26.62;34.27;99239.00;4973968;28;8991;-85
2023/05/24 11:24:56;;;;;;;;;23.50;22.25;;;;;26.78;34.44;99248.38;5005995;28;8834;-81
2023/05/24 11:27:26;;;;;;;;;24.25;24.25;;;;;26.91;34.16;99237.25;4969289;28;9023;-82
2023/05/24 11:29:57;;;;;;;;;27.25;27.00;;;;;26.37;35.38;99243.09;4970780;28;8841;-81
2023/05/24 11:32:27;;;;;;;;;27.75;27.75;;;;;26.18;36.00;99243.09;5046788;28;8963;-79
2023/05/24 11:34:58;;;;;;;;;24.50;24.50;;;;;25.88;36.66;99242.16;5060976;28;8840;-82
2023/05/24 11:37:27;;;;;;;;;29.00;28.25;;;;;26.02;36.03;99243.63;5050923;28;9014;-81
2023/05/24 11:40:15;;;;;;;;;23.25;22.00;;;;;26.24;35.98;99240.66;5049556;28;8840;-79
2023/05/24 11:42:43;;;;;;;;;24.25;23.50;;;;;26.37;35.85;99235.00;5065519;28;8863;-79